createdAt,value
2023-03-25T00:01:35.916Z,31.43
2023-03-25T00:04:05.107Z,34.17
2023-03-25T00:06:37.063Z,33.93
2023-03-25T00:09:10.421Z,25.10
2023-03-25T00:11:45.939Z,27.17
2023-03-25T00:14:44.059Z,27.50
2023-03-25T00:17:40.592Z,28.90
2023-03-25T00:20:36.543Z,33.77
2023-03-25T00:26:12.757Z,28.73
2023-03-25T00:35:19.809Z,28.33
2023-03-25T00:41:32.762Z,37.27
2023-03-25T00:47:18.066Z,32.13
2023-03-25T00:50:26.401Z,28.70
2023-03-25T00:56:37.691Z,32.50
2023-03-25T00:59:08.349Z,30.63
2023-03-25T01:01:40.706Z,31.17
2023-03-25T01:04:30.636Z,27.80
2023-03-25T01:07:07.886Z,30.40
2023-03-25T01:13:34.709Z,38.07
2023-03-25T01:15:31.108Z,35.23
2023-03-25T01:18:03.235Z,31.43
2023-03-25T01:20:36.843Z,29.83
2023-03-25T01:23:59.430Z,34.90
2023-03-25T01:26:00.647Z,29.63
2023-03-25T01:28:45.664Z,37.80
2023-03-25T01:31:16.269Z,29.43
2023-03-25T01:33:52.862Z,33.77
2023-03-25T01:36:21.773Z,29.93
2023-03-25T01:39:04.070Z,28.37
2023-03-25T01:41:48.672Z,36.63
2023-03-25T01:44:11.710Z,36.33
2023-03-25T01:46:42.432Z,27.80
2023-03-25T01:49:15.612Z,32.50
2023-03-25T01:51:46.557Z,34.30
2023-03-25T01:54:19.403Z,32.27
2023-03-25T01:56:52.462Z,28.63
2023-03-25T01:59:25.276Z,35.73
2023-03-25T02:01:54.827Z,32.50
2023-03-25T02:04:42.853Z,29.47
2023-03-25T02:07:14.740Z,32.43
2023-03-25T02:09:44.149Z,33.77
2023-03-25T02:12:12.916Z,28.53
2023-03-25T02:14:41.823Z,31.37
2023-03-25T02:17:22.469Z,36.77
2023-03-25T02:19:56.809Z,31.57
2023-03-25T02:22:54.289Z,36.67
2023-03-25T02:25:46.990Z,33.63
2023-03-25T02:28:32.602Z,30.23
2023-03-25T02:31:22.358Z,29.53
2023-03-25T02:34:29.267Z,34.33
2023-03-25T02:37:34.630Z,31.70
2023-03-25T02:40:07.285Z,31.00
2023-03-25T02:43:03.551Z,25.63
2023-03-25T02:45:38.367Z,30.30
2023-03-25T02:48:12.718Z,26.13
2023-03-25T02:50:58.613Z,30.90
2023-03-25T02:53:30.494Z,33.90
2023-03-25T02:56:02.355Z,26.60
2023-03-25T02:58:34.255Z,30.87
2023-03-25T03:01:09.208Z,27.90
2023-03-25T03:03:38.555Z,33.70
2023-03-25T03:06:09.559Z,27.20
2023-03-25T03:08:56.636Z,26.77
2023-03-25T03:11:40.595Z,31.27
2023-03-25T03:14:34.684Z,31.17
2023-03-25T03:17:30.287Z,31.97
2023-03-25T03:20:05.999Z,30.17
2023-03-25T03:22:48.695Z,32.90
2023-03-25T03:25:34.811Z,28.93
2023-03-25T03:28:22.693Z,27.07
2023-03-25T03:30:58.842Z,28.00
2023-03-25T03:33:30.231Z,33.70
2023-03-25T03:36:02.481Z,29.90
2023-03-25T03:38:40.140Z,31.47
2023-03-25T03:41:17.660Z,30.10
2023-03-25T03:43:55.106Z,26.97
2023-03-25T03:46:32.648Z,38.40
2023-03-25T03:49:04.612Z,31.07
2023-03-25T03:51:45.122Z,32.20
2023-03-25T03:54:18.613Z,31.63
2023-03-25T03:56:51.958Z,27.00
2023-03-25T03:59:40.286Z,29.37
2023-03-25T04:02:13.692Z,29.90
2023-03-25T04:04:45.289Z,30.67
2023-03-25T04:07:16.802Z,29.23
2023-03-25T04:10:01.987Z,29.67
2023-03-25T04:12:38.298Z,26.73
2023-03-25T04:15:09.267Z,33.67
2023-03-25T04:17:39.398Z,28.43
2023-03-25T04:20:13.937Z,30.90
2023-03-25T04:22:46.639Z,32.03
2023-03-25T04:25:23.373Z,30.53
2023-03-25T04:27:55.674Z,28.30
2023-03-25T04:30:28.450Z,31.63
2023-03-25T04:32:58.400Z,33.53
2023-03-25T04:35:29.566Z,37.13
2023-03-25T04:37:59.202Z,31.10
2023-03-25T04:40:27.902Z,34.27
2023-03-25T04:42:57.605Z,36.03
2023-03-25T04:45:30.285Z,33.10
2023-03-25T04:47:59.442Z,29.03
2023-03-25T04:50:40.334Z,32.90
2023-03-25T04:53:25.436Z,42.97
2023-03-25T04:55:52.365Z,35.77
2023-03-25T04:58:29.910Z,38.53
2023-03-25T05:01:04.012Z,32.17
2023-03-25T05:03:42.430Z,35.27
2023-03-25T05:06:07.930Z,35.63
2023-03-25T05:08:36.722Z,35.87
2023-03-25T05:11:06.984Z,34.07
2023-03-25T05:13:38.408Z,40.17
2023-03-25T05:16:11.039Z,31.57
2023-03-25T05:18:40.734Z,29.40
2023-03-25T05:21:11.284Z,32.07
2023-03-25T05:23:42.116Z,30.53
2023-03-25T05:26:15.934Z,30.80
2023-03-25T05:28:46.656Z,38.03
2023-03-25T05:31:15.459Z,30.10
2023-03-25T05:33:44.200Z,31.37
2023-03-25T05:36:16.457Z,32.47
2023-03-25T05:38:45.455Z,31.53
2023-03-25T05:41:19.427Z,32.13
2023-03-25T05:43:57.799Z,32.90
2023-03-25T05:46:37.285Z,29.80
2023-03-25T05:49:01.279Z,30.73
2023-03-25T05:51:36.307Z,31.27
2023-03-25T05:57:18.207Z,28.17
2023-03-25T05:59:48.885Z,26.87
2023-03-25T06:05:34.036Z,39.00
2023-03-25T06:08:04.046Z,48.80
2023-03-25T06:10:36.942Z,51.47
2023-03-25T06:13:07.246Z,55.23
2023-03-25T06:15:38.059Z,52.13
2023-03-25T06:18:07.611Z,49.53
2023-03-25T06:20:36.662Z,57.65
2023-03-25T06:23:12.479Z,46.00
2023-03-25T06:25:41.416Z,49.80
2023-03-25T06:28:10.277Z,38.67
2023-03-25T06:30:39.103Z,42.60
2023-03-25T06:33:09.488Z,40.45
2023-03-25T06:36:11.644Z,42.70
2023-03-25T06:38:40.988Z,41.67
2023-03-25T06:41:09.638Z,36.83
2023-03-25T06:43:40.516Z,36.70
2023-03-25T06:46:09.717Z,36.20
2023-03-25T06:48:38.480Z,34.08
2023-03-25T06:51:07.490Z,38.95
2023-03-25T06:53:40.517Z,35.10
2023-03-25T06:56:11.130Z,36.45
2023-03-25T06:59:03.230Z,38.98
2023-03-25T07:01:46.397Z,49.88
2023-03-25T07:04:20.123Z,40.15
2023-03-25T07:07:26.936Z,39.27
2023-03-25T07:44:31.433Z,36.77
2023-03-25T07:53:14.180Z,24.80
2023-03-25T07:55:45.932Z,30.32
2023-03-25T07:58:26.782Z,30.27
2023-03-25T08:01:04.667Z,26.95
2023-03-25T08:03:36.440Z,29.57
2023-03-25T08:06:05.837Z,29.75
2023-03-25T08:08:34.895Z,29.60
2023-03-25T08:11:03.924Z,34.80
2023-03-25T08:13:32.794Z,31.27
2023-03-25T08:16:01.580Z,31.15
2023-03-25T08:18:30.667Z,30.00
2023-03-25T08:20:59.344Z,27.05
2023-03-25T08:23:29.439Z,28.73
2023-03-25T08:26:01.238Z,26.77
2023-03-25T08:31:36.359Z,25.62
2023-03-25T08:34:11.487Z,25.70
2023-03-25T08:36:44.856Z,20.52
2023-03-25T08:39:25.225Z,24.75
2023-03-25T08:41:56.646Z,25.50
2023-03-25T08:44:51.843Z,30.97
2023-03-25T08:47:22.183Z,31.02
2023-03-25T08:49:51.505Z,26.95
2023-03-25T08:52:21.772Z,25.50
2023-03-25T08:54:51.251Z,22.42
2023-03-25T08:57:20.629Z,35.25
2023-03-25T08:59:51.220Z,28.47
2023-03-25T09:02:21.728Z,26.73
2023-03-25T09:04:51.364Z,28.80
2023-03-25T09:07:23.320Z,26.02
2023-03-25T09:09:51.933Z,25.08
2023-03-25T09:12:20.879Z,20.25
2023-03-25T09:14:50.610Z,20.00
2023-03-25T09:17:19.316Z,28.07
2023-03-25T09:19:48.014Z,25.57
2023-03-25T09:22:19.039Z,23.42
2023-03-25T09:25:19.303Z,22.60
2023-03-25T10:00:42.162Z,18.45
2023-03-25T10:07:32.163Z,12.40
2023-03-25T10:16:39.062Z,7.30
2023-03-25T10:19:45.542Z,8.78
2023-03-25T10:22:31.244Z,10.05
2023-03-25T10:25:11.590Z,8.98
2023-03-25T10:27:43.211Z,7.10
2023-03-25T10:46:50.165Z,6.17
2023-03-25T10:49:22.249Z,11.65
2023-03-25T10:51:54.735Z,12.85
2023-03-25T10:54:29.458Z,10.00
2023-03-25T10:57:13.379Z,14.47
2023-03-25T10:59:48.121Z,7.33
2023-03-25T11:02:23.224Z,6.62
2023-03-25T11:05:00.731Z,8.78
2023-03-25T11:07:32.505Z,13.72
2023-03-25T11:10:18.012Z,9.83
2023-03-25T11:12:48.552Z,5.28
2023-03-25T11:15:29.233Z,5.33
2023-03-25T11:18:10.927Z,6.50
2023-03-25T11:20:42.989Z,6.53
2023-03-25T11:26:38.466Z,7.60
2023-03-25T11:29:10.916Z,6.25
2023-03-25T11:31:44.164Z,10.18
2023-03-25T11:37:35.902Z,9.28
2023-03-25T11:40:12.157Z,7.97
2023-03-25T11:42:51.173Z,6.45
2023-03-25T11:45:39.166Z,6.35
2023-03-25T11:48:13.962Z,6.78
2023-03-25T11:50:53.062Z,10.05
2023-03-25T11:53:24.754Z,19.32
2023-03-25T11:55:59.109Z,8.83
2023-03-25T11:58:32.422Z,8.28
2023-03-25T12:04:31.542Z,8.80
2023-03-25T12:07:11.221Z,4.87
2023-03-25T12:09:43.038Z,5.85
2023-03-25T12:12:36.581Z,7.67
2023-03-25T12:15:24.797Z,7.90
2023-03-25T12:18:13.167Z,4.20
2023-03-25T12:20:51.435Z,6.60
2023-03-25T12:23:34.694Z,10.72
2023-03-25T12:26:15.581Z,8.35
2023-03-25T12:29:05.546Z,3.90
2023-03-25T12:31:37.360Z,4.33
2023-03-25T12:34:21.669Z,5.03
2023-03-25T12:37:06.924Z,5.95
2023-03-25T12:39:44.564Z,9.88
2023-03-25T12:42:37.015Z,5.20
2023-03-25T12:45:24.690Z,7.15
2023-03-25T12:48:24.055Z,8.83
2023-03-25T12:51:15.261Z,7.10
2023-03-25T12:54:14.413Z,7.33
2023-03-25T12:57:16.147Z,6.55
2023-03-25T13:00:23.710Z,6.92
2023-03-25T13:03:07.788Z,6.67
2023-03-25T13:06:06.756Z,9.15
2023-03-25T13:08:50.158Z,4.62
2023-03-25T13:11:24.357Z,6.20
2023-03-25T13:13:56.643Z,8.23
2023-03-25T13:16:30.367Z,6.33
2023-03-25T13:19:13.917Z,7.25
2023-03-25T13:21:50.037Z,6.33
2023-03-25T13:24:24.299Z,8.33
2023-03-25T13:26:55.793Z,6.12
2023-03-25T13:29:34.636Z,7.90
2023-03-25T13:32:07.104Z,4.67
2023-03-25T13:34:51.735Z,6.30
2023-03-25T13:40:49.950Z,8.40
2023-03-25T13:43:27.549Z,5.58
2023-03-25T13:46:06.178Z,10.60
2023-03-25T13:48:40.872Z,9.40
2023-03-25T13:51:11.646Z,9.33
2023-03-25T13:53:50.292Z,6.58
2023-03-25T13:56:30.032Z,9.28
2023-03-25T13:59:27.540Z,16.40
2023-03-25T14:02:27.974Z,6.25
2023-03-25T14:05:19.620Z,6.83
2023-03-25T14:08:02.878Z,25.50
2023-03-25T14:10:51.474Z,8.53
2023-03-25T14:13:26.812Z,11.75
2023-03-25T14:15:59.078Z,7.25
2023-03-25T14:18:30.044Z,11.35
2023-03-25T14:21:00.001Z,9.28
2023-03-25T14:23:32.326Z,7.08
2023-03-25T14:26:07.736Z,6.47
2023-03-25T14:28:46.123Z,5.47
2023-03-25T14:31:27.612Z,7.30
2023-03-25T14:34:05.232Z,7.37
2023-03-25T14:36:42.901Z,5.28
2023-03-25T14:39:14.301Z,5.72
2023-03-25T14:41:58.372Z,6.00
2023-03-25T14:44:29.355Z,26.65
2023-03-25T14:47:15.085Z,10.25
2023-03-25T14:50:00.601Z,9.38
2023-03-25T14:52:33.017Z,9.38
2023-03-25T14:55:04.892Z,10.88
2023-03-25T14:57:41.631Z,10.10
2023-03-25T15:00:21.085Z,11.65
2023-03-25T15:02:56.265Z,9.15
2023-03-25T15:05:28.963Z,7.53
2023-03-25T15:08:10.148Z,9.10
2023-03-25T15:10:55.996Z,7.70
2023-03-25T15:13:30.810Z,11.20
2023-03-25T15:16:09.024Z,17.27
2023-03-25T15:18:46.756Z,17.00
2023-03-25T15:21:16.799Z,13.90
2023-03-25T15:24:09.211Z,10.40
2023-03-25T15:26:56.370Z,10.70
2023-03-25T15:29:50.829Z,22.65
2023-03-25T15:32:38.311Z,33.23
2023-03-25T15:35:31.723Z,19.62
2023-03-25T15:38:36.493Z,22.25
2023-03-25T15:41:14.277Z,16.42
2023-03-25T15:44:09.156Z,12.45
2023-03-25T15:47:07.880Z,10.18
2023-03-25T15:49:49.612Z,15.68
2023-03-25T15:52:42.819Z,57.80
2023-03-25T15:55:19.083Z,99.17
2023-03-25T15:57:52.739Z,13.08
2023-03-25T16:00:30.193Z,15.72
2023-03-25T16:03:10.650Z,14.75
2023-03-25T16:05:44.162Z,18.17
2023-03-25T16:08:21.322Z,9.60
2023-03-25T16:10:51.740Z,15.23
2023-03-25T16:13:29.942Z,13.55
2023-03-25T16:16:02.583Z,16.35
2023-03-25T16:18:34.188Z,12.65
2023-03-25T16:21:13.917Z,12.93
2023-03-25T16:24:17.411Z,14.47
2023-03-25T16:27:02.384Z,12.68
2023-03-25T16:29:34.072Z,19.65
2023-03-25T16:32:10.080Z,26.20
2023-03-25T16:34:50.347Z,17.55
2023-03-25T16:37:19.594Z,17.30
2023-03-25T16:39:58.219Z,14.83
2023-03-25T16:42:57.956Z,14.80
2023-03-25T16:45:55.666Z,12.93
2023-03-25T16:48:12.719Z,10.88
2023-03-25T16:50:44.160Z,15.65
2023-03-25T16:53:19.333Z,12.98
2023-03-25T16:56:07.478Z,12.63
2023-03-25T16:58:58.080Z,13.50
2023-03-25T17:01:32.939Z,11.00
2023-03-25T17:04:10.776Z,13.75
2023-03-25T17:06:44.345Z,17.27
2023-03-25T17:10:35.683Z,13.90
2023-03-25T17:12:31.902Z,20.35
2023-03-25T17:18:33.552Z,17.37
2023-03-25T17:21:04.200Z,15.90
2023-03-25T17:23:41.428Z,53.92
2023-03-25T17:26:14.329Z,35.05
2023-03-25T17:28:51.845Z,27.32
2023-03-25T17:31:44.111Z,25.90
2023-03-25T17:34:15.837Z,17.52
2023-03-25T17:36:49.819Z,16.57
2023-03-25T17:39:22.019Z,19.32
2023-03-25T17:41:54.494Z,25.43
2023-03-25T17:44:23.671Z,32.90
2023-03-25T17:47:06.060Z,46.08
2023-03-25T17:49:35.836Z,48.28
2023-03-25T17:52:08.707Z,78.10
2023-03-25T17:54:38.141Z,45.50
2023-03-25T17:57:10.031Z,39.03
2023-03-25T17:59:40.115Z,25.85
2023-03-25T18:02:19.246Z,46.65
2023-03-25T18:04:48.284Z,29.90
2023-03-25T18:07:25.834Z,31.40
2023-03-25T18:10:02.658Z,36.93
2023-03-25T18:13:03.947Z,34.33
2023-03-25T18:15:42.410Z,37.93
2023-03-25T18:18:30.878Z,35.80
2023-03-25T18:21:04.313Z,37.03
2023-03-25T18:23:34.539Z,33.13
2023-03-25T18:26:04.916Z,38.00
2023-03-25T18:28:34.636Z,44.08
2023-03-25T18:31:03.811Z,44.05
2023-03-25T18:33:38.442Z,36.08
2023-03-25T18:36:08.483Z,71.35
2023-03-25T18:38:37.501Z,57.70
2023-03-25T18:41:26.355Z,73.15
2023-03-25T18:43:55.066Z,65.00
2023-03-25T18:46:23.759Z,74.58
2023-03-25T18:48:52.482Z,64.17
2023-03-25T18:51:32.546Z,62.75
2023-03-25T18:53:52.548Z,49.13
2023-03-25T18:56:25.541Z,57.67
2023-03-25T18:58:58.304Z,60.88
2023-03-25T19:01:27.147Z,60.35
2023-03-25T19:04:00.613Z,60.95
2023-03-25T19:06:35.023Z,229.50
2023-03-25T19:09:08.343Z,56.55
2023-03-25T19:11:37.355Z,50.88
2023-03-25T19:14:12.424Z,44.48
2023-03-25T19:16:57.230Z,52.13
2023-03-25T19:19:18.828Z,51.25
2023-03-25T19:21:50.679Z,57.17
2023-03-25T19:24:23.534Z,43.10
2023-03-25T19:26:52.314Z,48.02
2023-03-25T19:29:21.017Z,43.95
2023-03-25T19:31:54.150Z,70.22
2023-03-25T19:34:23.015Z,39.67
2023-03-25T19:36:53.554Z,52.53
2023-03-25T19:39:23.166Z,57.73
2023-03-25T19:41:53.225Z,59.27
2023-03-25T19:44:23.195Z,56.75
2023-03-25T19:46:54.719Z,56.73
2023-03-25T19:49:36.847Z,50.03
2023-03-25T19:58:27.515Z,53.35
2023-03-25T20:01:03.528Z,56.50
2023-03-25T20:03:42.799Z,60.65
2023-03-25T20:06:15.795Z,57.20
2023-03-25T20:19:27.424Z,98.05
2023-03-25T20:28:06.927Z,58.85
2023-03-25T20:31:31.163Z,58.00
2023-03-25T20:37:12.938Z,48.87
2023-03-25T20:42:27.472Z,52.33
2023-03-25T20:44:58.815Z,45.88
2023-03-25T20:47:40.975Z,52.60
2023-03-25T20:50:22.374Z,61.00
2023-03-25T20:52:57.241Z,52.83
2023-03-25T20:55:32.468Z,50.70
2023-03-25T20:59:16.193Z,61.13
2023-03-25T21:01:13.520Z,61.33
2023-03-25T21:03:43.166Z,63.48
2023-03-25T21:08:46.203Z,46.70
2023-03-25T21:11:16.554Z,42.23
2023-03-25T21:13:45.557Z,38.33
2023-03-25T21:16:14.713Z,41.98
2023-03-25T21:18:44.885Z,34.55
2023-03-25T21:21:13.618Z,32.75
2023-03-25T21:23:43.153Z,30.82
2023-03-25T21:26:13.476Z,36.00
2023-03-25T21:28:42.831Z,37.45
2023-03-25T21:31:18.675Z,23.20
2023-03-25T21:33:50.029Z,24.35
2023-03-25T21:36:24.489Z,24.65
2023-03-25T21:38:56.550Z,21.27
2023-03-25T21:41:25.526Z,23.57
2023-03-25T21:43:54.289Z,21.65
2023-03-25T21:46:27.997Z,23.15
2023-03-25T21:49:01.389Z,22.02
2023-03-25T21:51:32.526Z,16.52
2023-03-25T21:54:01.488Z,18.05
2023-03-25T21:56:35.125Z,16.32
2023-03-25T21:59:04.705Z,20.15
2023-03-25T22:01:38.090Z,15.80
2023-03-25T22:04:08.434Z,15.60
2023-03-25T22:06:37.549Z,18.98
2023-03-25T22:09:08.195Z,13.13
2023-03-25T22:11:37.908Z,12.23
2023-03-25T22:14:07.019Z,13.32
2023-03-25T22:16:36.477Z,11.83
2023-03-25T22:19:06.380Z,19.12
2023-03-25T22:21:37.635Z,11.12
2023-03-25T22:24:09.675Z,37.20
2023-03-25T22:26:43.314Z,10.58
2023-03-25T22:29:13.749Z,10.60
2023-03-25T22:31:54.926Z,8.35
2023-03-25T22:34:31.442Z,9.90
2023-03-25T22:37:01.782Z,9.93
2023-03-25T22:39:33.800Z,11.08
2023-03-25T22:42:02.481Z,8.40
2023-03-25T22:44:31.275Z,7.45
2023-03-25T22:46:59.966Z,13.35
2023-03-25T22:49:28.684Z,8.25
2023-03-25T22:51:59.694Z,9.73
2023-03-25T22:54:28.435Z,6.60
2023-03-25T22:56:59.853Z,11.63
2023-03-25T22:59:28.622Z,8.43
2023-03-25T23:01:57.427Z,8.65
2023-03-25T23:04:26.237Z,6.70
2023-03-25T23:07:05.121Z,5.90
2023-03-25T23:09:29.302Z,3.50
2023-03-25T23:11:57.969Z,5.50
2023-03-25T23:14:26.631Z,3.05
2023-03-25T23:16:57.381Z,7.08
2023-03-25T23:19:26.293Z,5.75
2023-03-25T23:21:54.924Z,4.37
2023-03-25T23:24:23.614Z,4.40
2023-03-25T23:26:52.375Z,3.70
2023-03-25T23:29:21.105Z,10.40
2023-03-25T23:31:49.865Z,2.70
2023-03-25T23:34:19.156Z,1.80
2023-03-25T23:36:47.792Z,2.17
2023-03-25T23:39:20.572Z,2.08
2023-03-25T23:41:49.973Z,1.95
2023-03-25T23:44:19.119Z,0.95
2023-03-25T23:46:50.512Z,1.13
2023-03-25T23:49:20.310Z,1.13
2023-03-25T23:51:50.923Z,7.67
2023-03-25T23:54:19.551Z,0.90
2023-03-25T23:56:48.158Z,0.77
2023-03-25T23:59:16.914Z,1.03
